sensor_id;sensor_type;location;lat;lon;timestamp;P1;durP1;ratioP1;P2;durP2;ratioP2
33792;SDS011;20105;48.764;9.178;2022-09-12T00:01:03;7.03;;;6.20;;
33792;SDS011;20105;48.764;9.178;2022-09-12T00:03:29;9.40;;;6.38;;
33792;SDS011;20105;48.764;9.178;2022-09-12T00:05:54;9.00;;;7.53;;
33792;SDS011;20105;48.764;9.178;2022-09-12T00:08:20;6.63;;;6.03;;
33792;SDS011;20105;48.764;9.178;2022-09-12T00:10:45;8.00;;;7.20;;
33792;SDS011;20105;48.764;9.178;2022-09-12T00:13:11;8.57;;;7.67;;
33792;SDS011;20105;48.764;9.178;2022-09-12T00:15:37;7.43;;;6.57;;
33792;SDS011;20105;48.764;9.178;2022-09-12T00:18:04;6.93;;;6.22;;
33792;SDS011;20105;48.764;9.178;2022-09-12T00:20:30;7.07;;;6.38;;
33792;SDS011;20105;48.764;9.178;2022-09-12T00:22:56;7.40;;;6.70;;
33792;SDS011;20105;48.764;9.178;2022-09-12T00:25:21;7.13;;;6.43;;
33792;SDS011;20105;48.764;9.178;2022-09-12T00:27:47;7.10;;;6.40;;
33792;SDS011;20105;48.764;9.178;2022-09-12T00:30:12;7.53;;;6.83;;
33792;SDS011;20105;48.764;9.178;2022-09-12T00:32:38;7.90;;;7.10;;
33792;SDS011;20105;48.764;9.178;2022-09-12T00:35:04;9.70;;;6.47;;
33792;SDS011;20105;48.764;9.178;2022-09-12T00:37:29;7.15;;;6.45;;
33792;SDS011;20105;48.764;9.178;2022-09-12T00:39:56;6.43;;;5.83;;
33792;SDS011;20105;48.764;9.178;2022-09-12T00:42:21;6.93;;;6.22;;
33792;SDS011;20105;48.764;9.178;2022-09-12T00:44:48;7.13;;;6.40;;
33792;SDS011;20105;48.764;9.178;2022-09-12T00:50:08;11.95;;;7.97;;
33792;SDS011;20105;48.764;9.178;2022-09-12T00:52:48;8.48;;;7.60;;
33792;SDS011;20105;48.764;9.178;2022-09-12T00:55:20;8.20;;;6.85;;
33792;SDS011;20105;48.764;9.178;2022-09-12T01:00:43;7.82;;;6.85;;
33792;SDS011;20105;48.764;9.178;2022-09-12T01:03:10;9.23;;;7.22;;
33792;SDS011;20105;48.764;9.178;2022-09-12T01:05:39;7.63;;;6.22;;
33792;SDS011;20105;48.764;9.178;2022-09-12T01:08:09;7.90;;;6.35;;
33792;SDS011;20105;48.764;9.178;2022-09-12T01:10:34;7.93;;;7.13;;
33792;SDS011;20105;48.764;9.178;2022-09-12T01:13:03;8.20;;;7.28;;
33792;SDS011;20105;48.764;9.178;2022-09-12T01:15:32;8.57;;;7.78;;
33792;SDS011;20105;48.764;9.178;2022-09-12T01:23:46;9.80;;;7.65;;
33792;SDS011;20105;48.764;9.178;2022-09-12T01:37:46;8.70;;;7.82;;
33792;SDS011;20105;48.764;9.178;2022-09-12T01:43:22;7.90;;;7.05;;
33792;SDS011;20105;48.764;9.178;2022-09-12T01:48:50;8.70;;;7.90;;
33792;SDS011;20105;48.764;9.178;2022-09-12T01:51:37;7.97;;;7.18;;
33792;SDS011;20105;48.764;9.178;2022-09-12T01:54:08;8.75;;;7.60;;
33792;SDS011;20105;48.764;9.178;2022-09-12T01:56:49;10.45;;;8.20;;
33792;SDS011;20105;48.764;9.178;2022-09-12T01:59:29;9.00;;;6.75;;
33792;SDS011;20105;48.764;9.178;2022-09-12T02:02:01;8.07;;;7.28;;
33792;SDS011;20105;48.764;9.178;2022-09-12T02:04:34;7.75;;;6.95;;
33792;SDS011;20105;48.764;9.178;2022-09-12T02:07:20;11.77;;;8.13;;
33792;SDS011;20105;48.764;9.178;2022-09-12T02:09:58;9.05;;;8.23;;
33792;SDS011;20105;48.764;9.178;2022-09-12T02:12:28;10.48;;;8.00;;
33792;SDS011;20105;48.764;9.178;2022-09-12T02:15:03;10.00;;;8.50;;
33792;SDS011;20105;48.764;9.178;2022-09-12T02:17:34;9.13;;;7.60;;
33792;SDS011;20105;48.764;9.178;2022-09-12T02:20:07;10.82;;;9.73;;
33792;SDS011;20105;48.764;9.178;2022-09-12T02:22:40;8.48;;;7.68;;
33792;SDS011;20105;48.764;9.178;2022-09-12T02:25:08;10.40;;;8.15;;
33792;SDS011;20105;48.764;9.178;2022-09-12T02:27:40;10.75;;;8.77;;
33792;SDS011;20105;48.764;9.178;2022-09-12T02:30:09;8.95;;;8.05;;
33792;SDS011;20105;48.764;9.178;2022-09-12T02:35:45;8.93;;;7.97;;
33792;SDS011;20105;48.764;9.178;2022-09-12T02:41:05;10.77;;;9.05;;
33792;SDS011;20105;48.764;9.178;2022-09-12T02:43:31;10.43;;;8.00;;
33792;SDS011;20105;48.764;9.178;2022-09-12T02:45:57;12.20;;;9.07;;
33792;SDS011;20105;48.764;9.178;2022-09-12T02:48:26;10.13;;;8.83;;
33792;SDS011;20105;48.764;9.178;2022-09-12T02:50:55;11.45;;;8.65;;
33792;SDS011;20105;48.764;9.178;2022-09-12T02:53:21;11.20;;;8.97;;
33792;SDS011;20105;48.764;9.178;2022-09-12T02:55:49;10.93;;;9.02;;
33792;SDS011;20105;48.764;9.178;2022-09-12T02:58:17;11.20;;;9.88;;
33792;SDS011;20105;48.764;9.178;2022-09-12T03:03:37;11.00;;;8.80;;
33792;SDS011;20105;48.764;9.178;2022-09-12T03:09:19;11.98;;;9.93;;
33792;SDS011;20105;48.764;9.178;2022-09-12T03:18:17;10.35;;;8.95;;
33792;SDS011;20105;48.764;9.178;2022-09-12T03:23:25;11.20;;;8.57;;
33792;SDS011;20105;48.764;9.178;2022-09-12T03:28:29;10.90;;;9.48;;
33792;SDS011;20105;48.764;9.178;2022-09-12T03:30:56;11.65;;;10.05;;
33792;SDS011;20105;48.764;9.178;2022-09-12T03:33:24;10.77;;;9.02;;
33792;SDS011;20105;48.764;9.178;2022-09-12T03:35:50;11.20;;;9.35;;
33792;SDS011;20105;48.764;9.178;2022-09-12T03:38:17;9.50;;;8.60;;
33792;SDS011;20105;48.764;9.178;2022-09-12T03:40:43;10.38;;;8.95;;
33792;SDS011;20105;48.764;9.178;2022-09-12T03:43:10;11.45;;;8.98;;
33792;SDS011;20105;48.764;9.178;2022-09-12T03:45:39;11.05;;;8.85;;
33792;SDS011;20105;48.764;9.178;2022-09-12T03:48:05;10.55;;;8.20;;
33792;SDS011;20105;48.764;9.178;2022-09-12T03:50:30;11.20;;;8.47;;
33792;SDS011;20105;48.764;9.178;2022-09-12T03:52:59;10.90;;;9.53;;
33792;SDS011;20105;48.764;9.178;2022-09-12T03:55:26;12.85;;;9.63;;
33792;SDS011;20105;48.764;9.178;2022-09-12T03:57:52;10.17;;;9.17;;
33792;SDS011;20105;48.764;9.178;2022-09-12T04:00:18;12.82;;;10.25;;
33792;SDS011;20105;48.764;9.178;2022-09-12T04:02:43;13.53;;;10.47;;
33792;SDS011;20105;48.764;9.178;2022-09-12T04:05:09;12.10;;;9.47;;
33792;SDS011;20105;48.764;9.178;2022-09-12T04:07:34;12.40;;;10.47;;
33792;SDS011;20105;48.764;9.178;2022-09-12T04:10:00;13.20;;;10.33;;
33792;SDS011;20105;48.764;9.178;2022-09-12T04:12:25;12.13;;;9.63;;
33792;SDS011;20105;48.764;9.178;2022-09-12T04:14:52;11.35;;;9.07;;
33792;SDS011;20105;48.764;9.178;2022-09-12T04:17:18;12.10;;;10.40;;
33792;SDS011;20105;48.764;9.178;2022-09-12T04:19:44;12.63;;;10.80;;
33792;SDS011;20105;48.764;9.178;2022-09-12T04:22:09;10.60;;;9.50;;
33792;SDS011;20105;48.764;9.178;2022-09-12T04:24:35;10.87;;;9.17;;
33792;SDS011;20105;48.764;9.178;2022-09-12T04:27:00;11.77;;;10.30;;
33792;SDS011;20105;48.764;9.178;2022-09-12T04:29:26;11.40;;;9.80;;
33792;SDS011;20105;48.764;9.178;2022-09-12T04:31:51;10.27;;;9.20;;
33792;SDS011;20105;48.764;9.178;2022-09-12T04:34:17;12.20;;;9.47;;
33792;SDS011;20105;48.764;9.178;2022-09-12T04:36:43;11.05;;;9.95;;
33792;SDS011;20105;48.764;9.178;2022-09-12T04:39:09;16.93;;;10.93;;
33792;SDS011;20105;48.764;9.178;2022-09-12T04:41:36;11.35;;;8.93;;
33792;SDS011;20105;48.764;9.178;2022-09-12T04:44:05;11.20;;;8.90;;
33792;SDS011;20105;48.764;9.178;2022-09-12T04:46:34;13.15;;;10.35;;
33792;SDS011;20105;48.764;9.178;2022-09-12T04:49:02;14.98;;;10.48;;
33792;SDS011;20105;48.764;9.178;2022-09-12T04:51:30;9.57;;;8.57;;
33792;SDS011;20105;48.764;9.178;2022-09-12T04:53:59;13.35;;;11.02;;
33792;SDS011;20105;48.764;9.178;2022-09-12T04:56:46;13.40;;;10.05;;
33792;SDS011;20105;48.764;9.178;2022-09-12T04:59:13;14.98;;;11.25;;
33792;SDS011;20105;48.764;9.178;2022-09-12T05:01:41;11.85;;;10.05;;
33792;SDS011;20105;48.764;9.178;2022-09-12T05:04:08;12.67;;;9.87;;
33792;SDS011;20105;48.764;9.178;2022-09-12T05:06:35;11.80;;;9.35;;
33792;SDS011;20105;48.764;9.178;2022-09-12T05:09:01;14.25;;;10.43;;
33792;SDS011;20105;48.764;9.178;2022-09-12T05:11:30;11.13;;;8.93;;
33792;SDS011;20105;48.764;9.178;2022-09-12T05:13:57;9.75;;;8.35;;
33792;SDS011;20105;48.764;9.178;2022-09-12T05:16:23;13.03;;;10.47;;
33792;SDS011;20105;48.764;9.178;2022-09-12T05:18:50;10.35;;;9.05;;
33792;SDS011;20105;48.764;9.178;2022-09-12T05:21:16;12.57;;;11.03;;
33792;SDS011;20105;48.764;9.178;2022-09-12T05:23:44;13.63;;;10.13;;
33792;SDS011;20105;48.764;9.178;2022-09-12T05:26:12;12.60;;;9.73;;
33792;SDS011;20105;48.764;9.178;2022-09-12T05:28:39;10.70;;;9.38;;
33792;SDS011;20105;48.764;9.178;2022-09-12T05:31:11;12.70;;;9.93;;
33792;SDS011;20105;48.764;9.178;2022-09-12T05:33:41;17.05;;;11.00;;
33792;SDS011;20105;48.764;9.178;2022-09-12T05:36:12;11.20;;;8.73;;
33792;SDS011;20105;48.764;9.178;2022-09-12T05:38:39;12.02;;;9.65;;
33792;SDS011;20105;48.764;9.178;2022-09-12T05:41:06;13.37;;;9.73;;
33792;SDS011;20105;48.764;9.178;2022-09-12T05:43:34;12.38;;;9.65;;
33792;SDS011;20105;48.764;9.178;2022-09-12T05:46:02;13.93;;;9.93;;
33792;SDS011;20105;48.764;9.178;2022-09-12T05:48:37;12.95;;;10.32;;
33792;SDS011;20105;48.764;9.178;2022-09-12T05:51:08;11.98;;;8.88;;
33792;SDS011;20105;48.764;9.178;2022-09-12T05:53:43;12.35;;;9.25;;
33792;SDS011;20105;48.764;9.178;2022-09-12T05:56:13;13.85;;;10.20;;
33792;SDS011;20105;48.764;9.178;2022-09-12T05:58:42;12.65;;;9.55;;
33792;SDS011;20105;48.764;9.178;2022-09-12T06:01:11;13.27;;;10.40;;
33792;SDS011;20105;48.764;9.178;2022-09-12T06:03:42;16.65;;;9.65;;
33792;SDS011;20105;48.764;9.178;2022-09-12T06:06:19;17.23;;;11.10;;
33792;SDS011;20105;48.764;9.178;2022-09-12T06:08:47;16.50;;;9.80;;
33792;SDS011;20105;48.764;9.178;2022-09-12T06:11:16;12.88;;;10.35;;
33792;SDS011;20105;48.764;9.178;2022-09-12T06:13:43;12.70;;;10.30;;
33792;SDS011;20105;48.764;9.178;2022-09-12T06:16:13;13.70;;;9.87;;
33792;SDS011;20105;48.764;9.178;2022-09-12T06:18:40;11.77;;;10.57;;
33792;SDS011;20105;48.764;9.178;2022-09-12T06:21:07;14.43;;;10.35;;
33792;SDS011;20105;48.764;9.178;2022-09-12T06:23:34;11.90;;;9.68;;
33792;SDS011;20105;48.764;9.178;2022-09-12T06:26:01;13.70;;;10.75;;
33792;SDS011;20105;48.764;9.178;2022-09-12T06:28:28;11.82;;;10.57;;
33792;SDS011;20105;48.764;9.178;2022-09-12T06:30:59;11.70;;;9.70;;
33792;SDS011;20105;48.764;9.178;2022-09-12T06:33:30;13.50;;;10.45;;
33792;SDS011;20105;48.764;9.178;2022-09-12T06:36:04;14.80;;;12.80;;
33792;SDS011;20105;48.764;9.178;2022-09-12T06:38:32;13.38;;;10.52;;
33792;SDS011;20105;48.764;9.178;2022-09-12T06:40:57;14.50;;;11.20;;
33792;SDS011;20105;48.764;9.178;2022-09-12T06:43:24;16.65;;;10.48;;
33792;SDS011;20105;48.764;9.178;2022-09-12T06:45:50;13.20;;;10.27;;
33792;SDS011;20105;48.764;9.178;2022-09-12T06:48:16;10.40;;;9.30;;
33792;SDS011;20105;48.764;9.178;2022-09-12T06:50:41;11.50;;;10.00;;
33792;SDS011;20105;48.764;9.178;2022-09-12T06:53:07;10.30;;;9.20;;
33792;SDS011;20105;48.764;9.178;2022-09-12T06:55:33;11.98;;;10.27;;
33792;SDS011;20105;48.764;9.178;2022-09-12T06:57:59;15.27;;;11.43;;
33792;SDS011;20105;48.764;9.178;2022-09-12T07:00:25;18.52;;;11.23;;
33792;SDS011;20105;48.764;9.178;2022-09-12T07:02:54;13.93;;;11.40;;
33792;SDS011;20105;48.764;9.178;2022-09-12T07:05:23;13.23;;;9.90;;
33792;SDS011;20105;48.764;9.178;2022-09-12T07:07:49;11.20;;;10.10;;
33792;SDS011;20105;48.764;9.178;2022-09-12T07:10:15;10.30;;;8.97;;
33792;SDS011;20105;48.764;9.178;2022-09-12T07:12:41;13.03;;;10.00;;
33792;SDS011;20105;48.764;9.178;2022-09-12T07:15:11;17.53;;;11.27;;
33792;SDS011;20105;48.764;9.178;2022-09-12T07:17:37;12.23;;;10.37;;
33792;SDS011;20105;48.764;9.178;2022-09-12T07:20:03;12.20;;;9.80;;
33792;SDS011;20105;48.764;9.178;2022-09-12T07:22:29;13.13;;;11.73;;
33792;SDS011;20105;48.764;9.178;2022-09-12T07:24:55;13.57;;;10.37;;
33792;SDS011;20105;48.764;9.178;2022-09-12T07:27:21;11.63;;;10.37;;
33792;SDS011;20105;48.764;9.178;2022-09-12T07:29:47;9.80;;;8.83;;
33792;SDS011;20105;48.764;9.178;2022-09-12T07:32:12;13.17;;;10.23;;
33792;SDS011;20105;48.764;9.178;2022-09-12T07:34:38;8.83;;;8.00;;
33792;SDS011;20105;48.764;9.178;2022-09-12T07:37:04;9.73;;;8.83;;
33792;SDS011;20105;48.764;9.178;2022-09-12T07:39:29;10.07;;;9.07;;
33792;SDS011;20105;48.764;9.178;2022-09-12T07:41:56;8.80;;;7.27;;
33792;SDS011;20105;48.764;9.178;2022-09-12T07:44:22;11.23;;;7.67;;
33792;SDS011;20105;48.764;9.178;2022-09-12T07:46:49;7.90;;;6.67;;
33792;SDS011;20105;48.764;9.178;2022-09-12T07:49:14;7.53;;;6.80;;
33792;SDS011;20105;48.764;9.178;2022-09-12T07:51:40;8.40;;;7.60;;
33792;SDS011;20105;48.764;9.178;2022-09-12T07:54:06;6.60;;;6.00;;
33792;SDS011;20105;48.764;9.178;2022-09-12T07:56:33;7.50;;;6.47;;
33792;SDS011;20105;48.764;9.178;2022-09-12T07:58:59;9.40;;;8.37;;
33792;SDS011;20105;48.764;9.178;2022-09-12T08:01:24;7.83;;;6.80;;
33792;SDS011;20105;48.764;9.178;2022-09-12T08:03:52;6.87;;;5.90;;
33792;SDS011;20105;48.764;9.178;2022-09-12T08:06:21;6.87;;;6.07;;
33792;SDS011;20105;48.764;9.178;2022-09-12T08:08:49;8.03;;;7.33;;
33792;SDS011;20105;48.764;9.178;2022-09-12T08:11:16;9.23;;;8.00;;
33792;SDS011;20105;48.764;9.178;2022-09-12T08:13:44;8.70;;;7.80;;
33792;SDS011;20105;48.764;9.178;2022-09-12T08:16:17;8.10;;;7.30;;
33792;SDS011;20105;48.764;9.178;2022-09-12T08:18:47;8.03;;;6.63;;
33792;SDS011;20105;48.764;9.178;2022-09-12T08:21:14;14.20;;;7.90;;
33792;SDS011;20105;48.764;9.178;2022-09-12T08:23:50;7.50;;;6.70;;
33792;SDS011;20105;48.764;9.178;2022-09-12T08:26:18;9.73;;;7.67;;
33792;SDS011;20105;48.764;9.178;2022-09-12T08:28:44;8.70;;;6.90;;
33792;SDS011;20105;48.764;9.178;2022-09-12T08:31:11;9.03;;;7.60;;
33792;SDS011;20105;48.764;9.178;2022-09-12T08:33:38;6.77;;;6.17;;
33792;SDS011;20105;48.764;9.178;2022-09-12T08:36:14;6.83;;;5.60;;
33792;SDS011;20105;48.764;9.178;2022-09-12T08:38:42;8.93;;;6.40;;
33792;SDS011;20105;48.764;9.178;2022-09-12T08:41:11;7.90;;;7.00;;
33792;SDS011;20105;48.764;9.178;2022-09-12T08:43:58;9.10;;;6.37;;
33792;SDS011;20105;48.764;9.178;2022-09-12T08:49:09;6.60;;;6.00;;
33792;SDS011;20105;48.764;9.178;2022-09-12T08:51:39;8.57;;;6.40;;
33792;SDS011;20105;48.764;9.178;2022-09-12T08:54:09;10.37;;;5.57;;
33792;SDS011;20105;48.764;9.178;2022-09-12T08:56:45;11.67;;;6.73;;
33792;SDS011;20105;48.764;9.178;2022-09-12T08:59:12;6.00;;;5.40;;
33792;SDS011;20105;48.764;9.178;2022-09-12T09:01:41;8.73;;;6.13;;
33792;SDS011;20105;48.764;9.178;2022-09-12T09:09:56;4.23;;;3.73;;
33792;SDS011;20105;48.764;9.178;2022-09-12T09:12:28;5.13;;;4.57;;
33792;SDS011;20105;48.764;9.178;2022-09-12T09:20:18;4.93;;;3.70;;
33792;SDS011;20105;48.764;9.178;2022-09-12T09:31:18;2.47;;;2.27;;
33792;SDS011;20105;48.764;9.178;2022-09-12T09:33:45;2.73;;;2.53;;
33792;SDS011;20105;48.764;9.178;2022-09-12T09:39:03;2.57;;;2.40;;
33792;SDS011;20105;48.764;9.178;2022-09-12T09:41:40;2.90;;;2.40;;
33792;SDS011;20105;48.764;9.178;2022-09-12T09:44:10;6.20;;;1.93;;
33792;SDS011;20105;48.764;9.178;2022-09-12T09:46:36;2.30;;;2.10;;
33792;SDS011;20105;48.764;9.178;2022-09-12T09:49:01;2.27;;;2.17;;
33792;SDS011;20105;48.764;9.178;2022-09-12T09:51:36;1.93;;;1.83;;
33792;SDS011;20105;48.764;9.178;2022-09-12T09:56:47;2.10;;;2.00;;
33792;SDS011;20105;48.764;9.178;2022-09-12T09:59:46;3.13;;;2.40;;
33792;SDS011;20105;48.764;9.178;2022-09-12T10:04:38;2.93;;;1.97;;
33792;SDS011;20105;48.764;9.178;2022-09-12T10:07:16;2.67;;;2.07;;
33792;SDS011;20105;48.764;9.178;2022-09-12T10:09:44;1.87;;;1.77;;
33792;SDS011;20105;48.764;9.178;2022-09-12T10:12:38;1.33;;;1.33;;
33792;SDS011;20105;48.764;9.178;2022-09-12T10:15:15;2.03;;;1.93;;
33792;SDS011;20105;48.764;9.178;2022-09-12T10:17:52;1.80;;;1.70;;
33792;SDS011;20105;48.764;9.178;2022-09-12T10:20:39;2.40;;;2.20;;
33792;SDS011;20105;48.764;9.178;2022-09-12T10:25:45;1.60;;;1.50;;
33792;SDS011;20105;48.764;9.178;2022-09-12T10:28:17;2.00;;;1.90;;
33792;SDS011;20105;48.764;9.178;2022-09-12T10:30:57;1.70;;;1.57;;
33792;SDS011;20105;48.764;9.178;2022-09-12T10:33:26;2.43;;;2.23;;
33792;SDS011;20105;48.764;9.178;2022-09-12T10:35:53;1.80;;;1.70;;
33792;SDS011;20105;48.764;9.178;2022-09-12T10:38:26;3.30;;;1.80;;
33792;SDS011;20105;48.764;9.178;2022-09-12T10:41:08;1.43;;;1.43;;
33792;SDS011;20105;48.764;9.178;2022-09-12T10:43:36;1.37;;;1.37;;
33792;SDS011;20105;48.764;9.178;2022-09-12T10:48:51;1.67;;;1.50;;
33792;SDS011;20105;48.764;9.178;2022-09-12T10:51:37;2.80;;;1.60;;
33792;SDS011;20105;48.764;9.178;2022-09-12T10:54:04;1.67;;;1.57;;
33792;SDS011;20105;48.764;9.178;2022-09-12T11:01:41;1.37;;;1.30;;
33792;SDS011;20105;48.764;9.178;2022-09-12T11:12:46;1.60;;;1.50;;
33792;SDS011;20105;48.764;9.178;2022-09-12T11:21:05;1.37;;;1.27;;
33792;SDS011;20105;48.764;9.178;2022-09-12T11:32:31;1.60;;;1.50;;
33792;SDS011;20105;48.764;9.178;2022-09-12T11:35:29;1.00;;;0.90;;
33792;SDS011;20105;48.764;9.178;2022-09-12T11:38:13;1.53;;;1.43;;
33792;SDS011;20105;48.764;9.178;2022-09-12T11:40:53;1.60;;;1.50;;
33792;SDS011;20105;48.764;9.178;2022-09-12T11:43:41;1.43;;;0.80;;
33792;SDS011;20105;48.764;9.178;2022-09-12T11:46:20;1.10;;;1.10;;
33792;SDS011;20105;48.764;9.178;2022-09-12T11:51:26;1.07;;;1.07;;
33792;SDS011;20105;48.764;9.178;2022-09-12T11:54:03;1.20;;;1.10;;
33792;SDS011;20105;48.764;9.178;2022-09-12T11:56:30;1.20;;;1.10;;
33792;SDS011;20105;48.764;9.178;2022-09-12T11:59:03;1.10;;;1.00;;
33792;SDS011;20105;48.764;9.178;2022-09-12T12:01:38;1.47;;;1.27;;
33792;SDS011;20105;48.764;9.178;2022-09-12T12:04:10;1.77;;;1.67;;
33792;SDS011;20105;48.764;9.178;2022-09-12T12:07:19;0.90;;;0.90;;
33792;SDS011;20105;48.764;9.178;2022-09-12T12:09:28;0.90;;;0.90;;
33792;SDS011;20105;48.764;9.178;2022-09-12T12:11:55;1.30;;;1.07;;
33792;SDS011;20105;48.764;9.178;2022-09-12T12:14:57;0.90;;;0.90;;
33792;SDS011;20105;48.764;9.178;2022-09-12T12:17:21;0.77;;;0.73;;
33792;SDS011;20105;48.764;9.178;2022-09-12T12:20:06;1.33;;;0.90;;
33792;SDS011;20105;48.764;9.178;2022-09-12T12:22:53;1.87;;;0.80;;
33792;SDS011;20105;48.764;9.178;2022-09-12T12:25:39;1.10;;;1.00;;
33792;SDS011;20105;48.764;9.178;2022-09-12T12:28:38;0.80;;;0.80;;
33792;SDS011;20105;48.764;9.178;2022-09-12T12:31:08;2.73;;;1.40;;
33792;SDS011;20105;48.764;9.178;2022-09-12T12:36:04;0.80;;;0.80;;
33792;SDS011;20105;48.764;9.178;2022-09-12T12:38:32;1.00;;;1.00;;
33792;SDS011;20105;48.764;9.178;2022-09-12T12:46:13;1.00;;;1.00;;
33792;SDS011;20105;48.764;9.178;2022-09-12T12:51:30;1.20;;;1.10;;
33792;SDS011;20105;48.764;9.178;2022-09-12T12:54:00;0.90;;;0.90;;
33792;SDS011;20105;48.764;9.178;2022-09-12T12:59:03;1.20;;;1.10;;
33792;SDS011;20105;48.764;9.178;2022-09-12T13:01:47;0.90;;;0.90;;
33792;SDS011;20105;48.764;9.178;2022-09-12T13:04:17;0.70;;;0.70;;
33792;SDS011;20105;48.764;9.178;2022-09-12T13:07:04;0.80;;;0.80;;
33792;SDS011;20105;48.764;9.178;2022-09-12T13:09:33;1.90;;;0.83;;
33792;SDS011;20105;48.764;9.178;2022-09-12T13:12:17;0.90;;;0.90;;
33792;SDS011;20105;48.764;9.178;2022-09-12T13:17:19;1.00;;;1.00;;
33792;SDS011;20105;48.764;9.178;2022-09-12T13:22:48;1.43;;;0.70;;
33792;SDS011;20105;48.764;9.178;2022-09-12T13:25:26;0.80;;;0.80;;
33792;SDS011;20105;48.764;9.178;2022-09-12T13:30:41;1.00;;;0.90;;
33792;SDS011;20105;48.764;9.178;2022-09-12T13:33:29;0.90;;;0.90;;
33792;SDS011;20105;48.764;9.178;2022-09-12T13:36:16;0.90;;;0.70;;
33792;SDS011;20105;48.764;9.178;2022-09-12T13:42:06;1.17;;;0.90;;
33792;SDS011;20105;48.764;9.178;2022-09-12T13:47:37;1.13;;;0.83;;
33792;SDS011;20105;48.764;9.178;2022-09-12T13:50:12;1.70;;;0.80;;
33792;SDS011;20105;48.764;9.178;2022-09-12T13:52:45;0.80;;;0.80;;
33792;SDS011;20105;48.764;9.178;2022-09-12T13:55:32;1.33;;;0.80;;
33792;SDS011;20105;48.764;9.178;2022-09-12T13:58:01;0.97;;;0.90;;
33792;SDS011;20105;48.764;9.178;2022-09-12T14:00:29;4.20;;;1.50;;
33792;SDS011;20105;48.764;9.178;2022-09-12T14:02:56;0.90;;;0.90;;
33792;SDS011;20105;48.764;9.178;2022-09-12T14:05:43;1.40;;;1.03;;
33792;SDS011;20105;48.764;9.178;2022-09-12T14:08:12;0.97;;;0.97;;
33792;SDS011;20105;48.764;9.178;2022-09-12T14:10:40;1.10;;;1.10;;
33792;SDS011;20105;48.764;9.178;2022-09-12T14:13:16;1.17;;;0.70;;
33792;SDS011;20105;48.764;9.178;2022-09-12T14:15:45;1.30;;;0.90;;
33792;SDS011;20105;48.764;9.178;2022-09-12T14:18:26;0.80;;;0.80;;
33792;SDS011;20105;48.764;9.178;2022-09-12T14:20:54;0.80;;;0.80;;
33792;SDS011;20105;48.764;9.178;2022-09-12T14:23:31;0.87;;;0.83;;
33792;SDS011;20105;48.764;9.178;2022-09-12T14:25:59;0.73;;;0.73;;
33792;SDS011;20105;48.764;9.178;2022-09-12T14:28:27;1.10;;;1.03;;
33792;SDS011;20105;48.764;9.178;2022-09-12T14:30:58;0.80;;;0.80;;
33792;SDS011;20105;48.764;9.178;2022-09-12T14:33:26;1.00;;;1.00;;
33792;SDS011;20105;48.764;9.178;2022-09-12T14:36:16;1.10;;;1.00;;
33792;SDS011;20105;48.764;9.178;2022-09-12T14:38:43;1.03;;;1.03;;
33792;SDS011;20105;48.764;9.178;2022-09-12T14:41:19;1.10;;;1.00;;
33792;SDS011;20105;48.764;9.178;2022-09-12T14:43:49;1.40;;;0.90;;
33792;SDS011;20105;48.764;9.178;2022-09-12T14:46:37;0.70;;;0.70;;
33792;SDS011;20105;48.764;9.178;2022-09-12T14:49:09;1.20;;;1.10;;
33792;SDS011;20105;48.764;9.178;2022-09-12T14:52:18;1.27;;;1.17;;
33792;SDS011;20105;48.764;9.178;2022-09-12T14:54:54;3.03;;;0.90;;
33792;SDS011;20105;48.764;9.178;2022-09-12T14:57:38;1.20;;;1.10;;
33792;SDS011;20105;48.764;9.178;2022-09-12T15:02:36;0.70;;;0.70;;
33792;SDS011;20105;48.764;9.178;2022-09-12T15:09:59;1.77;;;1.20;;
33792;SDS011;20105;48.764;9.178;2022-09-12T15:12:27;1.60;;;1.50;;
33792;SDS011;20105;48.764;9.178;2022-09-12T15:14:55;1.00;;;1.00;;
33792;SDS011;20105;48.764;9.178;2022-09-12T15:17:43;1.60;;;1.50;;
33792;SDS011;20105;48.764;9.178;2022-09-12T15:20:08;1.03;;;1.00;;
33792;SDS011;20105;48.764;9.178;2022-09-12T15:22:34;1.47;;;1.37;;
33792;SDS011;20105;48.764;9.178;2022-09-12T15:25:02;1.00;;;1.00;;
33792;SDS011;20105;48.764;9.178;2022-09-12T15:27:28;2.17;;;1.00;;
33792;SDS011;20105;48.764;9.178;2022-09-12T15:29:54;1.10;;;1.10;;
33792;SDS011;20105;48.764;9.178;2022-09-12T15:32:24;1.93;;;1.20;;
33792;SDS011;20105;48.764;9.178;2022-09-12T15:34:51;0.93;;;0.90;;
33792;SDS011;20105;48.764;9.178;2022-09-12T15:37:18;1.30;;;1.20;;
33792;SDS011;20105;48.764;9.178;2022-09-12T15:39:45;0.90;;;0.90;;
33792;SDS011;20105;48.764;9.178;2022-09-12T15:42:10;1.40;;;1.30;;
33792;SDS011;20105;48.764;9.178;2022-09-12T15:44:37;1.10;;;1.10;;
33792;SDS011;20105;48.764;9.178;2022-09-12T15:47:03;1.20;;;1.20;;
33792;SDS011;20105;48.764;9.178;2022-09-12T15:49:29;1.53;;;1.30;;
33792;SDS011;20105;48.764;9.178;2022-09-12T15:51:56;1.40;;;1.30;;
33792;SDS011;20105;48.764;9.178;2022-09-12T15:54:21;1.63;;;1.10;;
33792;SDS011;20105;48.764;9.178;2022-09-12T15:56:47;1.20;;;1.13;;
33792;SDS011;20105;48.764;9.178;2022-09-12T15:59:13;1.07;;;1.07;;
33792;SDS011;20105;48.764;9.178;2022-09-12T16:01:39;1.33;;;1.20;;
33792;SDS011;20105;48.764;9.178;2022-09-12T16:04:09;1.10;;;1.10;;
33792;SDS011;20105;48.764;9.178;2022-09-12T16:06:50;2.33;;;1.30;;
33792;SDS011;20105;48.764;9.178;2022-09-12T16:09:16;2.23;;;1.17;;
33792;SDS011;20105;48.764;9.178;2022-09-12T16:11:42;1.10;;;1.10;;
33792;SDS011;20105;48.764;9.178;2022-09-12T16:14:09;1.63;;;1.40;;
33792;SDS011;20105;48.764;9.178;2022-09-12T16:16:38;1.10;;;1.10;;
33792;SDS011;20105;48.764;9.178;2022-09-12T16:19:03;1.50;;;1.47;;
33792;SDS011;20105;48.764;9.178;2022-09-12T16:21:29;1.07;;;1.07;;
33792;SDS011;20105;48.764;9.178;2022-09-12T16:23:55;1.13;;;1.13;;
33792;SDS011;20105;48.764;9.178;2022-09-12T16:26:22;1.27;;;1.23;;
33792;SDS011;20105;48.764;9.178;2022-09-12T16:28:53;1.13;;;1.13;;
33792;SDS011;20105;48.764;9.178;2022-09-12T16:31:22;1.53;;;1.00;;
33792;SDS011;20105;48.764;9.178;2022-09-12T16:33:48;2.23;;;1.20;;
33792;SDS011;20105;48.764;9.178;2022-09-12T16:36:16;1.40;;;1.30;;
33792;SDS011;20105;48.764;9.178;2022-09-12T16:38:43;1.47;;;1.00;;
33792;SDS011;20105;48.764;9.178;2022-09-12T16:41:10;3.87;;;1.80;;
33792;SDS011;20105;48.764;9.178;2022-09-12T16:43:37;2.70;;;1.27;;
33792;SDS011;20105;48.764;9.178;2022-09-12T16:46:06;1.10;;;1.00;;
33792;SDS011;20105;48.764;9.178;2022-09-12T16:48:40;1.40;;;1.10;;
33792;SDS011;20105;48.764;9.178;2022-09-12T16:51:13;1.27;;;1.27;;
33792;SDS011;20105;48.764;9.178;2022-09-12T16:53:40;1.20;;;1.20;;
33792;SDS011;20105;48.764;9.178;2022-09-12T16:56:07;1.53;;;1.40;;
33792;SDS011;20105;48.764;9.178;2022-09-12T16:58:37;2.47;;;1.30;;
33792;SDS011;20105;48.764;9.178;2022-09-12T17:01:11;3.03;;;1.10;;
33792;SDS011;20105;48.764;9.178;2022-09-12T17:03:59;1.20;;;1.20;;
33792;SDS011;20105;48.764;9.178;2022-09-12T17:06:25;0.97;;;0.97;;
33792;SDS011;20105;48.764;9.178;2022-09-12T17:08:52;2.30;;;1.30;;
33792;SDS011;20105;48.764;9.178;2022-09-12T17:11:20;1.83;;;0.90;;
33792;SDS011;20105;48.764;9.178;2022-09-12T17:13:51;1.30;;;1.10;;
33792;SDS011;20105;48.764;9.178;2022-09-12T17:16:18;2.67;;;1.10;;
33792;SDS011;20105;48.764;9.178;2022-09-12T17:18:44;1.23;;;1.00;;
33792;SDS011;20105;48.764;9.178;2022-09-12T17:21:10;1.23;;;1.13;;
33792;SDS011;20105;48.764;9.178;2022-09-12T17:23:37;3.23;;;1.27;;
33792;SDS011;20105;48.764;9.178;2022-09-12T17:26:03;1.33;;;1.23;;
33792;SDS011;20105;48.764;9.178;2022-09-12T17:28:29;2.53;;;1.83;;
33792;SDS011;20105;48.764;9.178;2022-09-12T17:30:58;2.27;;;1.53;;
33792;SDS011;20105;48.764;9.178;2022-09-12T17:33:24;1.53;;;1.20;;